Time,TemperatureF,DewpointF,PressureIn,WindDirection,WindDirectionDegrees,WindSpeedMPH,WindSpeedGustMPH,Humidity,HourlyPrecipIn,Conditions,Clouds,dailyrainin,SoftwareType,DateUTC
2013-04-06 14:41:00,77.2,61.8,30.00,South,176,4.0,4.0,59,0.00,,SKC,0.00,VWS V13.01,2013-04-06 19:41:00,
2013-04-06 14:42:00,77.2,61.8,30.00,South,170,5.4,5.4,59,0.00,,SKC,0.00,VWS V13.01,2013-04-06 19:42:00,
2013-04-06 14:43:00,77.2,61.8,30.00,South,189,4.0,8.3,59,0.00,,SKC,0.00,VWS V13.01,2013-04-06 19:43:00,
2013-04-06 14:44:00,77.2,61.8,30.00,South,176,3.6,6.3,59,0.00,,SKC,0.00,VWS V13.01,2013-04-06 19:44:00,
2013-04-06 14:45:00,77.2,61.8,30.00,SW,215,3.6,7.6,59,0.00,,SKC,0.00,VWS V13.01,2013-04-06 19:45:00,
2013-04-06 14:46:00,77.4,61.9,30.00,South,169,3.6,6.3,59,0.00,,SKC,0.00,VWS V13.01,2013-04-06 19:46:00,
2013-04-06 14:47:00,77.4,61.9,30.00,South,185,4.0,4.0,59,0.00,,SKC,0.00,VWS V13.01,2013-04-06 19:47:00,
2013-04-06 14:48:00,77.5,62.1,30.00,East,94,2.7,5.8,59,0.00,,SKC,0.00,VWS V13.01,2013-04-06 19:48:00,
2013-04-06 14:52:00,77.9,62.4,30.00,SSE,165,5.8,7.6,59,0.00,,SKC,0.00,VWS V13.01,2013-04-06 19:52:00,
2013-04-06 14:57:00,77.9,62.4,29.97,South,184,4.0,5.4,59,0.00,,SKC,0.00,VWS V13.01,2013-04-06 19:57:00,
2013-04-06 15:02:00,78.1,62.6,29.97,South,179,2.7,8.1,59,0.00,,SKC,0.00,VWS V13.01,2013-04-06 20:02:00,
2013-04-06 15:07:00,77.7,62.3,29.97,South,170,5.4,5.4,59,0.00,,SKC,0.00,VWS V13.01,2013-04-06 20:07:00,
2013-04-06 15:12:00,77.4,61.9,29.97,SE,131,2.7,5.8,59,0.00,,SKC,0.00,VWS V13.01,2013-04-06 20:12:00,
2013-04-06 15:17:00,77.4,61.9,29.97,SSW,192,5.4,5.4,59,0.00,,SKC,0.00,VWS V13.01,2013-04-06 20:17:00,
2013-04-06 15:22:00,77.5,62.1,29.97,SE,126,3.1,3.6,59,0.00,,SKC,0.00,VWS V13.01,2013-04-06 20:22:00,
2013-04-06 15:27:00,77.4,61.9,29.97,SE,134,5.8,5.8,59,0.00,,SKC,0.00,VWS V13.01,2013-04-06 20:27:00,
2013-04-06 15:32:00,77.0,61.6,29.97,South,173,4.0,5.8,59,0.00,,SKC,0.00,VWS V13.01,2013-04-06 20:32:00,
2013-04-06 15:37:00,76.8,61.4,29.97,West,263,5.4,5.4,59,0.00,,SKC,0.00,VWS V13.01,2013-04-06 20:37:00,
2013-04-06 15:42:00,76.3,60.9,29.97,SSW,205,3.6,3.6,59,0.00,,SKC,0.00,VWS V13.01,2013-04-06 20:42:00,
2013-04-06 15:47:00,76.5,61.1,29.97,SSW,204,4.0,8.7,59,0.00,,SKC,0.00,VWS V13.01,2013-04-06 20:47:00,
2013-04-06 15:52:00,77.0,61.6,29.97,SE,137,2.7,2.7,59,0.00,,SKC,0.00,VWS V13.01,2013-04-06 20:52:00,
2013-04-06 15:57:00,76.8,61.4,29.97,SE,134,2.2,4.5,59,0.00,,SKC,0.00,VWS V13.01,2013-04-06 20:57:00,
2013-04-06 16:02:00,76.8,61.4,29.97,West,275,2.2,5.4,59,0.00,,SKC,0.00,VWS V13.01,2013-04-06 21:02:00,
2013-04-06 16:07:00,76.5,61.1,29.97,SE,142,6.3,6.3,59,0.00,,SKC,0.00,VWS V13.01,2013-04-06 21:07:00,
2013-04-06 16:12:00,75.7,60.4,29.97,SSE,166,2.2,2.2,59,0.00,,SKC,0.00,VWS V13.01,2013-04-06 21:12:00,
2013-04-06 16:17:00,74.8,60.0,29.97,SW,214,0.0,4.9,60,0.00,,SKC,0.00,VWS V13.01,2013-04-06 21:17:00,
2013-04-06 16:22:00,74.7,59.9,29.97,South,187,3.6,6.3,60,0.00,,SKC,0.00,VWS V13.01,2013-04-06 21:22:00,
2013-04-06 16:27:00,74.5,59.7,29.97,SE,124,5.4,5.8,60,0.00,,SKC,0.00,VWS V13.01,2013-04-06 21:27:00,
2013-04-06 16:32:00,74.7,59.9,29.97,SE,144,5.8,6.3,60,0.00,,SKC,0.00,VWS V13.01,2013-04-06 21:32:00,
2013-04-06 16:37:00,74.8,60.0,29.97,SSE,160,0.0,4.9,60,0.00,,SKC,0.00,VWS V13.01,2013-04-06 21:37:00,
2013-04-06 16:42:00,74.3,59.5,29.97,SSE,154,3.6,5.4,60,0.00,,SKC,0.00,VWS V13.01,2013-04-06 21:42:00,
2013-04-06 16:47:00,73.9,59.2,29.97,South,183,5.8,5.8,60,0.00,,SKC,0.00,VWS V13.01,2013-04-06 21:47:00,
2013-04-06 16:52:00,73.6,58.8,29.97,South,173,8.3,8.3,60,0.00,,SKC,0.00,VWS V13.01,2013-04-06 21:52:00,
2013-04-06 16:57:00,73.6,58.8,29.97,SE,144,2.7,5.4,60,0.00,,SKC,0.00,VWS V13.01,2013-04-06 21:57:00,
2013-04-06 17:02:00,73.2,58.5,29.97,South,174,7.6,7.6,60,0.00,,SKC,0.00,VWS V13.01,2013-04-06 22:02:00,
2013-04-06 17:07:00,72.9,58.2,29.97,SSE,159,5.4,8.1,60,0.00,,SKC,0.00,VWS V13.01,2013-04-06 22:07:00,
2013-04-06 17:12:00,72.5,57.8,29.97,South,179,3.1,4.0,60,0.00,,SKC,0.00,VWS V13.01,2013-04-06 22:12:00,
2013-04-06 17:17:00,72.3,57.7,29.97,SE,146,3.6,6.3,60,0.00,,SKC,0.00,VWS V13.01,2013-04-06 22:17:00,
2013-04-06 17:22:00,71.6,57.0,29.97,ESE,117,5.4,5.4,60,0.00,,SKC,0.00,VWS V13.01,2013-04-06 22:22:00,
2013-04-06 17:27:00,70.9,56.8,29.97,ESE,119,2.2,2.2,61,0.00,,SKC,0.00,VWS V13.01,2013-04-06 22:27:00,
2013-04-06 17:32:00,70.7,56.6,29.97,South,181,0.0,0.0,61,0.00,,SKC,0.00,VWS V13.01,2013-04-06 22:32:00,
2013-04-06 17:37:00,70.7,56.6,29.97,SSE,158,2.7,5.8,61,0.00,,SKC,0.00,VWS V13.01,2013-04-06 22:37:00,
2013-04-06 17:42:00,70.7,56.6,29.94,South,171,7.6,7.6,61,0.00,,SKC,0.00,VWS V13.01,2013-04-06 22:42:00,
2013-04-06 17:47:00,70.7,56.6,29.94,South,174,5.4,5.8,61,0.00,,SKC,0.00,VWS V13.01,2013-04-06 22:47:00,
2013-04-06 17:52:00,70.3,56.3,29.94,SSE,168,0.0,3.1,61,0.00,,SKC,0.00,VWS V13.01,2013-04-06 22:52:00,
2013-04-06 17:57:00,70.0,55.9,29.94,South,190,2.2,6.3,61,0.00,,SKC,0.00,VWS V13.01,2013-04-06 22:57:00,
2013-04-06 18:02:00,69.8,55.8,29.94,South,173,4.5,4.5,61,0.00,,SKC,0.00,VWS V13.01,2013-04-06 23:02:00,
2013-04-06 18:08:00,69.8,55.8,29.94,ESE,118,5.8,5.8,61,0.00,,SKC,0.00,VWS V13.01,2013-04-06 23:08:00,
2013-04-06 18:13:00,69.6,55.6,29.94,SE,131,4.0,5.8,61,0.00,,SKC,0.00,VWS V13.01,2013-04-06 23:13:00,
2013-04-06 18:18:00,69.4,55.4,29.94,ESE,112,0.0,0.0,61,0.00,,SKC,0.00,VWS V13.01,2013-04-06 23:18:00,
2013-04-06 18:23:00,69.1,55.1,29.94,South,169,2.2,3.1,61,0.00,,SKC,0.00,VWS V13.01,2013-04-06 23:23:00,
2013-04-06 18:28:00,68.9,54.9,29.94,SE,142,2.2,4.9,61,0.00,,SKC,0.00,VWS V13.01,2013-04-06 23:28:00,
2013-04-06 18:33:00,68.7,54.7,29.94,SSE,151,2.7,4.9,61,0.00,,SKC,0.00,VWS V13.01,2013-04-06 23:33:00,
2013-04-06 18:38:00,68.4,54.4,29.94,South,175,0.0,3.6,61,0.00,,SKC,0.00,VWS V13.01,2013-04-06 23:38:00,
2013-04-06 18:43:00,68.4,54.4,29.94,East,100,0.0,0.0,61,0.00,,SKC,0.00,VWS V13.01,2013-04-06 23:43:00,
2013-04-06 18:48:00,68.5,54.6,29.94,SSE,161,2.7,3.1,61,0.00,,SKC,0.00,VWS V13.01,2013-04-06 23:48:00,
2013-04-06 18:53:00,68.4,54.4,29.94,SSW,198,3.6,3.6,61,0.00,,SKC,0.00,VWS V13.01,2013-04-06 23:53:00,
2013-04-06 18:58:00,68.2,54.2,29.97,South,171,0.0,0.0,61,0.00,,SKC,0.00,VWS V13.01,2013-04-06 23:58:00,
2013-04-06 19:03:00,67.8,53.9,29.97,SE,134,2.7,3.6,61,0.00,,SKC,0.00,VWS V13.01,2013-04-07 00:03:00,
2013-04-06 19:08:00,67.5,53.6,29.97,SSE,156,2.2,3.1,61,0.00,,SKC,0.00,VWS V13.01,2013-04-07 00:08:00,
2013-04-06 19:13:00,67.3,53.4,29.94,SSW,192,0.0,0.0,61,0.00,,SKC,0.00,VWS V13.01,2013-04-07 00:13:00,
2013-04-06 19:18:00,67.1,53.2,29.94,SSE,156,7.6,7.6,61,0.00,,SKC,0.00,VWS V13.01,2013-04-07 00:18:00,
2013-04-06 19:23:00,66.7,52.9,29.94,ESE,117,4.0,5.4,61,0.00,,SKC,0.00,VWS V13.01,2013-04-07 00:23:00,
2013-04-06 19:28:00,66.6,52.7,29.94,SSE,148,2.2,3.1,61,0.00,,SKC,0.00,VWS V13.01,2013-04-07 00:28:00,
2013-04-06 19:33:00,66.4,52.5,29.94,South,188,5.4,5.4,61,0.00,,SKC,0.00,VWS V13.01,2013-04-07 00:33:00,
2013-04-06 19:38:00,66.2,52.4,29.94,SSE,168,3.6,3.6,61,0.00,,SKC,0.00,VWS V13.01,2013-04-07 00:38:00,
2013-04-06 19:43:00,66.0,52.6,29.94,SSE,157,5.8,5.8,62,0.00,,SKC,0.00,VWS V13.01,2013-04-07 00:43:00,
2013-04-06 19:48:00,66.0,52.6,29.94,SSE,161,5.4,5.8,62,0.00,,SKC,0.00,VWS V13.01,2013-04-07 00:48:00,
2013-04-06 19:53:00,65.7,52.3,29.94,SE,134,3.1,4.5,62,0.00,,SKC,0.00,VWS V13.01,2013-04-07 00:53:00,
2013-04-06 19:58:00,65.5,52.1,29.94,South,181,4.0,4.0,62,0.00,,SKC,0.00,VWS V13.01,2013-04-07 00:58:00,
2013-04-06 20:03:00,65.5,52.1,29.94,SSE,149,5.4,5.4,62,0.00,,SKC,0.00,VWS V13.01,2013-04-07 01:03:00,
2013-04-06 20:08:00,65.3,52.0,29.94,SE,145,3.6,5.8,62,0.00,,SKC,0.00,VWS V13.01,2013-04-07 01:08:00,
2013-04-06 20:13:00,65.1,51.8,29.94,SSE,162,4.0,5.4,62,0.00,,SKC,0.00,VWS V13.01,2013-04-07 01:13:00,
2013-04-06 20:18:00,65.1,51.8,29.94,South,169,0.0,4.0,62,0.00,,SKC,0.00,VWS V13.01,2013-04-07 01:18:00,
2013-04-06 20:23:00,65.1,52.7,29.94,SSW,193,5.4,5.4,64,0.00,,SKC,0.00,VWS V13.01,2013-04-07 01:23:00,
2013-04-06 20:28:00,64.9,52.5,29.94,SSE,164,4.0,5.8,64,0.00,,SKC,0.00,VWS V13.01,2013-04-07 01:28:00,
2013-04-06 20:33:00,64.9,52.5,29.94,SE,135,4.0,4.0,64,0.00,,SKC,0.00,VWS V13.01,2013-04-07 01:33:00,
2013-04-06 20:38:00,64.8,52.3,29.94,South,172,5.8,6.3,64,0.00,,SKC,0.00,VWS V13.01,2013-04-07 01:38:00,
2013-04-06 20:43:00,64.8,52.3,29.94,ESE,123,6.3,6.3,64,0.00,,SKC,0.00,VWS V13.01,2013-04-07 01:43:00,
2013-04-06 20:48:00,64.6,52.1,29.94,SSW,206,3.1,5.8,64,0.00,,SKC,0.00,VWS V13.01,2013-04-07 01:48:00,
2013-04-06 20:53:00,64.6,52.1,29.94,SSE,158,2.7,4.0,64,0.00,,SKC,0.00,VWS V13.01,2013-04-07 01:53:00,
2013-04-06 20:58:00,64.6,52.1,29.94,South,179,2.7,5.4,64,0.00,,SKC,0.00,VWS V13.01,2013-04-07 01:58:00,
2013-04-06 21:03:00,64.6,53.4,29.94,SSE,165,3.1,4.9,67,0.00,,SKC,0.00,VWS V13.01,2013-04-07 02:03:00,
2013-04-06 21:08:00,64.4,53.2,29.94,SE,141,3.1,4.0,67,0.00,,SKC,0.00,VWS V13.01,2013-04-07 02:08:00,
2013-04-06 21:13:00,64.4,53.2,29.94,SSE,163,0.0,4.0,67,0.00,,SKC,0.00,VWS V13.01,2013-04-07 02:13:00,
2013-04-06 21:18:00,64.4,53.2,29.94,South,171,6.3,6.3,67,0.00,,SKC,0.00,VWS V13.01,2013-04-07 02:18:00,
2013-04-06 21:23:00,64.4,53.2,29.94,SE,132,0.0,4.9,67,0.00,,SKC,0.00,VWS V13.01,2013-04-07 02:23:00,
2013-04-06 21:28:00,64.2,53.5,29.94,SSE,154,0.0,5.8,68,0.00,,SKC,0.00,VWS V13.01,2013-04-07 02:28:00,
2013-04-06 21:33:00,64.2,53.5,29.94,SE,146,2.7,4.9,68,0.00,,SKC,0.00,VWS V13.01,2013-04-07 02:33:00,
2013-04-06 21:38:00,64.2,53.8,29.94,SSE,152,5.8,5.8,69,0.00,,SKC,0.00,VWS V13.01,2013-04-07 02:38:00,
2013-04-06 21:43:00,64.2,54.2,29.94,South,183,4.0,4.0,70,0.00,,SKC,0.00,VWS V13.01,2013-04-07 02:43:00,
2013-04-06 21:48:00,64.0,54.5,29.94,South,173,4.9,6.3,71,0.00,,SKC,0.00,VWS V13.01,2013-04-07 02:48:00,
2013-04-06 21:53:00,64.0,54.1,29.94,South,177,0.0,0.0,70,0.00,,SKC,0.00,VWS V13.01,2013-04-07 02:53:00,
2013-04-06 21:58:00,64.0,53.7,29.94,SE,143,3.1,6.3,69,0.00,,SKC,0.00,VWS V13.01,2013-04-07 02:58:00,
2013-04-06 22:03:00,64.0,53.7,29.94,ESE,115,3.6,5.8,69,0.00,,SKC,0.00,VWS V13.01,2013-04-07 03:03:00,
2013-04-06 22:08:00,63.9,53.5,29.94,SSE,154,3.1,7.6,69,0.00,,SKC,0.00,VWS V13.01,2013-04-07 03:08:00,
2013-04-06 22:13:00,63.9,53.5,29.94,SSE,168,5.4,5.4,69,0.00,,SKC,0.00,VWS V13.01,2013-04-07 03:13:00,
2013-04-06 22:18:00,64.0,53.7,29.94,South,178,4.9,4.9,69,0.00,,SKC,0.00,VWS V13.01,2013-04-07 03:18:00,
2013-04-06 22:23:00,63.9,53.5,29.94,South,191,5.8,5.8,69,0.00,,SKC,0.00,VWS V13.01,2013-04-07 03:23:00,
2013-04-06 22:28:00,63.9,53.5,29.94,South,180,8.7,8.7,69,0.00,,SKC,0.00,VWS V13.01,2013-04-07 03:28:00,
2013-04-06 22:33:00,63.7,53.3,29.94,SSE,152,3.1,3.1,69,0.00,,SKC,0.00,VWS V13.01,2013-04-07 03:33:00,
2013-04-06 22:38:00,63.7,53.3,29.94,South,179,2.7,5.8,69,0.00,,SKC,0.00,VWS V13.01,2013-04-07 03:38:00,
2013-04-06 22:43:00,63.5,53.2,29.97,South,175,4.0,5.8,69,0.00,,SKC,0.00,VWS V13.01,2013-04-07 03:43:00,
2013-04-06 22:48:00,63.5,52.8,29.97,SSW,205,5.8,5.8,68,0.00,,SKC,0.00,VWS V13.01,2013-04-07 03:48:00,
2013-04-06 22:53:00,63.7,52.9,29.97,South,182,2.2,5.4,68,0.00,,SKC,0.00,VWS V13.01,2013-04-07 03:53:00,
2013-04-06 22:58:00,63.7,52.9,29.94,South,176,3.6,3.6,68,0.00,,SKC,0.00,VWS V13.01,2013-04-07 03:58:00,
2013-04-06 23:00:00,63.7,52.9,29.94,SE,141,4.0,5.8,68,0.00,,SKC,0.00,VWS V13.01,2013-04-07 04:00:00,
2013-04-06 23:01:00,63.7,52.9,29.94,South,176,4.0,4.0,68,0.00,,SKC,0.00,VWS V13.01,2013-04-07 04:01:00,
2013-04-06 23:06:00,63.5,52.8,29.94,South,183,3.6,4.0,68,0.00,,SKC,0.00,VWS V13.01,2013-04-07 04:06:00,
2013-04-06 23:12:00,63.5,52.8,29.94,SSE,154,4.0,5.4,68,0.00,,SKC,0.00,VWS V13.01,2013-04-07 04:12:00,
2013-04-06 23:17:00,63.3,53.0,29.94,South,190,5.8,6.3,69,0.00,,SKC,0.00,VWS V13.01,2013-04-07 04:17:00,
2013-04-06 23:22:00,63.3,53.0,29.94,SSW,202,2.7,4.9,69,0.00,,SKC,0.00,VWS V13.01,2013-04-07 04:22:00,
2013-04-06 23:27:00,63.3,53.0,29.94,South,176,5.8,5.8,69,0.00,,SKC,0.00,VWS V13.01,2013-04-07 04:27:00,
2013-04-06 23:32:00,63.1,52.8,29.94,SSE,156,2.7,3.6,69,0.00,,SKC,0.00,VWS V13.01,2013-04-07 04:32:00,
2013-04-06 23:37:00,63.1,53.2,29.94,South,188,3.6,5.8,70,0.00,,SKC,0.00,VWS V13.01,2013-04-07 04:37:00,
2013-04-06 23:42:00,63.0,53.0,29.94,SSE,165,4.0,4.0,70,0.00,,SKC,0.00,VWS V13.01,2013-04-07 04:42:00,
2013-04-06 23:47:00,63.0,53.0,29.94,South,189,3.1,4.0,70,0.00,,SKC,0.00,VWS V13.01,2013-04-07 04:47:00,
2013-04-06 23:52:00,63.0,53.0,29.94,South,182,5.8,7.2,70,0.00,,SKC,0.00,VWS V13.01,2013-04-07 04:52:00,
2013-04-06 23:57:00,63.0,53.4,29.94,SSE,148,3.1,3.1,71,0.00,,SKC,0.00,VWS V13.01,2013-04-07 04:57:00,